Time;durP1;ratioP1;P1;durP2;ratioP2;P2;SDS_P1;SDS_P2;PMS_P1;PMS_P2;Temp;Humidity;BMP_temperature;BMP_pressure;BME280_temperature;BME280_humidity;BME280_pressure;Samples;Min_cycle;Max_cycle;Signal;HPM_P1;HPM_P2
2023/03/13 00:01:28;;;;;;;4.9;3.8;;;;;;;;;;;;;
2023/03/13 00:03:54;;;;;;;4.7;3.8;;;;;;;;;;;;;
2023/03/13 00:06:20;;;;;;;4.6;2.8;;;;;;;;;;;;;
2023/03/13 00:08:46;;;;;;;4.6;3.7;;;;;;;;;;;;;
2023/03/13 00:11:11;;;;;;;3.3;2.7;;;;;;;;;;;;;
2023/03/13 00:13:43;;;;;;;5.8;3.6;;;;;;;;;;;;;
2023/03/13 00:16:09;;;;;;;6.2;3.6;;;;;;;;;;;;;
2023/03/13 00:18:38;;;;;;;5.4;3.5;;;;;;;;;;;;;
2023/03/13 00:21:04;;;;;;;4.5;3.6;;;;;;;;;;;;;
2023/03/13 00:23:29;;;;;;;5.5;4.3;;;;;;;;;;;;;
2023/03/13 00:25:56;;;;;;;6.2;4.2;;;;;;;;;;;;;
2023/03/13 00:28:21;;;;;;;6;4.2;;;;;;;;;;;;;
2023/03/13 00:30:47;;;;;;;7.2;4.2;;;;;;;;;;;;;
2023/03/13 00:33:12;;;;;;;4;3.5;;;;;;;;;;;;;
2023/03/13 00:35:40;;;;;;;6.9;4.3;;;;;;;;;;;;;
2023/03/13 00:38:06;;;;;;;5.7;4.3;;;;;;;;;;;;;
2023/03/13 00:40:32;;;;;;;5.1;4;;;;;;;;;;;;;
2023/03/13 00:42:58;;;;;;;5.7;3.9;;;;;;;;;;;;;
2023/03/13 00:45:22;;;;;;;5.7;3.7;;;;;;;;;;;;;
2023/03/13 00:47:48;;;;;;;4.6;3;;;;;;;;;;;;;
2023/03/13 00:50:13;;;;;;;3.8;2.2;;;;;;;;;;;;;
2023/03/13 00:52:38;;;;;;;3.5;3;;;;;;;;;;;;;
2023/03/13 00:55:04;;;;;;;3.5;2.8;;;;;;;;;;;;;
2023/03/13 00:57:36;;;;;;;6;3.2;;;;;;;;;;;;;
2023/03/13 00:59:57;;;;;;;3.8;2.9;;;;;;;;;;;;;
2023/03/13 01:02:23;;;;;;;4.7;3.5;;;;;;;;;;;;;
2023/03/13 01:04:48;;;;;;;4.7;3.3;;;;;;;;;;;;;
2023/03/13 01:07:13;;;;;;;4.2;3.4;;;;;;;;;;;;;
2023/03/13 01:09:38;;;;;;;4.7;3.1;;;;;;;;;;;;;
2023/03/13 01:12:03;;;;;;;4.4;3.1;;;;;;;;;;;;;
2023/03/13 01:14:28;;;;;;;4.1;2.9;;;;;;;;;;;;;
2023/03/13 01:16:55;;;;;;;4.2;3.1;;;;;;;;;;;;;
2023/03/13 01:19:20;;;;;;;2.8;2.4;;;;;;;;;;;;;
2023/03/13 01:21:46;;;;;;;4.2;2.8;;;;;;;;;;;;;
2023/03/13 01:24:11;;;;;;;3.5;2.6;;;;;;;;;;;;;
2023/03/13 01:26:36;;;;;;;2.7;2.5;;;;;;;;;;;;;
2023/03/13 01:29:02;;;;;;;3.6;2.8;;;;;;;;;;;;;
2023/03/13 01:31:29;;;;;;;3.5;2.6;;;;;;;;;;;;;
2023/03/13 01:33:54;;;;;;;2.3;2.1;;;;;;;;;;;;;
2023/03/13 01:36:20;;;;;;;3.3;2;;;;;;;;;;;;;
2023/03/13 01:38:45;;;;;;;2.5;2.3;;;;;;;;;;;;;
2023/03/13 01:41:12;;;;;;;2.5;1.6;;;;;;;;;;;;;
2023/03/13 01:43:37;;;;;;;2;1.7;;;;;;;;;;;;;
2023/03/13 01:46:03;;;;;;;3;2.3;;;;;;;;;;;;;
2023/03/13 01:48:28;;;;;;;4.4;2.1;;;;;;;;;;;;;
2023/03/13 01:50:53;;;;;;;2.4;1.8;;;;;;;;;;;;;
2023/03/13 01:53:18;;;;;;;1.6;1.5;;;;;;;;;;;;;
2023/03/13 01:55:44;;;;;;;2.2;1.7;;;;;;;;;;;;;
2023/03/13 01:58:09;;;;;;;1.6;1.5;;;;;;;;;;;;;
2023/03/13 02:00:34;;;;;;;2.4;1.9;;;;;;;;;;;;;
2023/03/13 02:03:00;;;;;;;2.1;1.6;;;;;;;;;;;;;
2023/03/13 02:05:25;;;;;;;1.4;1.3;;;;;;;;;;;;;
2023/03/13 02:07:51;;;;;;;2.7;2.5;;;;;;;;;;;;;
2023/03/13 02:10:17;;;;;;;1.5;1.4;;;;;;;;;;;;;
2023/03/13 02:12:47;;;;;;;1.8;1.7;;;;;;;;;;;;;
2023/03/13 02:15:19;;;;;;;1.6;1.3;;;;;;;;;;;;;
2023/03/13 02:17:46;;;;;;;1.6;1.5;;;;;;;;;;;;;
2023/03/13 02:20:11;;;;;;;1.6;1.5;;;;;;;;;;;;;
2023/03/13 02:22:38;;;;;;;1.9;1.7;;;;;;;;;;;;;
2023/03/13 02:25:03;;;;;;;2.5;2;;;;;;;;;;;;;
2023/03/13 02:27:28;;;;;;;2.9;2.2;;;;;;;;;;;;;
2023/03/13 02:29:55;;;;;;;3;2.4;;;;;;;;;;;;;
2023/03/13 02:32:20;;;;;;;3.4;2.1;;;;;;;;;;;;;
2023/03/13 02:34:46;;;;;;;2.5;2;;;;;;;;;;;;;
2023/03/13 02:37:12;;;;;;;3;2.3;;;;;;;;;;;;;
2023/03/13 02:39:37;;;;;;;3.9;2.7;;;;;;;;;;;;;
2023/03/13 03:51:51;;;;;;;2.7;2;;;;;;;;;;;;;
2023/03/13 03:54:17;;;;;;;2;1.6;;;;;;;;;;;;;
2023/03/13 03:56:44;;;;;;;2.9;1.8;;;;;;;;;;;;;
2023/03/13 03:59:09;;;;;;;2.3;1.9;;;;;;;;;;;;;
2023/03/13 04:02:33;;;;;;;3.4;2.5;;;;;;;2.88;100;934.0478;;;;
2023/03/13 04:05:03;;;;;;;5.1;3.6;;;;;;;2.9;100;933.9981;;;;
2023/03/13 04:07:27;;;;;;;2.5;2.1;;;;;;;2.92;100;933.9241;;;;
2023/03/13 04:10:05;;;;;;;4.7;3;;;;;;;2.97;100;933.9255;;;;
2023/03/13 04:12:30;;;;;;;2.7;2.2;;;;;;;3;100;933.925;;;;
2023/03/13 04:14:59;;;;;;;3.3;1.9;;;;;;;3;100;933.8722;;;;
2023/03/13 04:26:34;;;;;;;4.7;3.4;;;;;;;3;100;933.8541;;;;
2023/03/13 04:32:49;;;;;;;3.7;2.5;;;;;;;3.06;100;933.8318;;;;
2023/03/13 04:35:23;;;;;;;4.3;2.8;;;;;;;3.03;100;933.7924;;;;
2023/03/13 04:37:55;;;;;;;5.9;3.2;;;;;;;3.02;100;933.7347;;;;
2023/03/13 04:40:23;;;;;;;4.3;3.1;;;;;;;3.06;100;933.7148;;;;
2023/03/13 04:42:48;;;;;;;4.6;3;;;;;;;3.05;100;933.6531;;;;
2023/03/13 04:45:21;;;;;;;2.6;2.2;;;;;;;3.1;100;933.6609;;;;
2023/03/13 04:56:58;;;;;;;2.8;2.5;;;;;;;3.05;100;933.6735;;;;
2023/03/13 04:59:29;;;;;;;2.7;2.5;;;;;;;3.02;100;933.6395;;;;
2023/03/13 05:01:59;;;;;;;3.1;1.9;;;;;;;2.95;100;933.6669;;;;
2023/03/13 05:04:28;;;;;;;2.4;2.1;;;;;;;2.94;100;933.5803;;;;
2023/03/13 05:06:53;;;;;;;2.3;2.1;;;;;;;2.93;100;933.4244;;;;
2023/03/13 05:09:18;;;;;;;2.6;2.1;;;;;;;2.95;100;933.4194;;;;
2023/03/13 05:11:45;;;;;;;2.2;2;;;;;;;2.99;100;933.3351;;;;
2023/03/13 05:14:10;;;;;;;2.2;1.9;;;;;;;3;100;933.3713;;;;
2023/03/13 05:19:44;;;;;;;3.1;2.2;;;;;;;3.02;100;933.3087;;;;
2023/03/13 05:22:09;;;;;;;2.5;2;;;;;;;3.05;100;933.3017;;;;
2023/03/13 05:24:37;;;;;;;5.5;5;;;;;;;3.09;100;933.1594;;;;
2023/03/13 05:27:04;;;;;;;2.6;2;;;;;;;3.12;100;933.1298;;;;
2023/03/13 05:29:32;;;;;;;3.1;2.2;;;;;;;3.09;100;933.1643;;;;
2023/03/13 05:31:57;;;;;;;2.9;2.5;;;;;;;3.1;100;933.1503;;;;
2023/03/13 05:35:20;;;;;;;3.4;2.7;;;;;;;3.08;100;933.0948;;;;
2023/03/13 05:38:21;;;;;;;4.4;2.8;;;;;;;3.07;100;933.0795;;;;
2023/03/13 05:40:46;;;;;;;3.6;2.9;;;;;;;2.96;100;933.1453;;;;
2023/03/13 05:43:15;;;;;;;2.8;2.2;;;;;;;3.01;100;933.1597;;;;
2023/03/13 05:45:44;;;;;;;3.4;2.4;;;;;;;3.11;100;932.9886;;;;
2023/03/13 05:48:09;;;;;;;2.7;2.2;;;;;;;3.19;100;933.1199;;;;
2023/03/13 05:50:37;;;;;;;2.7;2.2;;;;;;;3.24;100;933.0712;;;;
2023/03/13 05:53:02;;;;;;;3.8;2.2;;;;;;;3.24;100;933.212;;;;
2023/03/13 05:55:32;;;;;;;3.5;2.5;;;;;;;3.29;100;933.0334;;;;
2023/03/13 05:58:01;;;;;;;4.8;2.7;;;;;;;3.4;100;933.0483;;;;
2023/03/13 06:00:26;;;;;;;3.4;2.8;;;;;;;3.49;100;932.9706;;;;
2023/03/13 06:02:56;;;;;;;3.4;2.8;;;;;;;3.41;100;932.8994;;;;
2023/03/13 06:05:22;;;;;;;3.7;2.4;;;;;;;3.46;100;932.9612;;;;
2023/03/13 06:07:52;;;;;;;3.3;2.4;;;;;;;3.6;100;932.9303;;;;
2023/03/13 06:10:25;;;;;;;2.7;2.2;;;;;;;3.65;100;932.9447;;;;
2023/03/13 06:12:56;;;;;;;2.3;2.1;;;;;;;3.67;100;932.9608;;;;
2023/03/13 06:15:24;;;;;;;3.9;2.2;;;;;;;3.73;100;932.9119;;;;
2023/03/13 06:17:54;;;;;;;3.1;2.4;;;;;;;3.84;100;932.952;;;;
2023/03/13 06:20:24;;;;;;;3;2.6;;;;;;;3.98;100;932.981;;;;
2023/03/13 06:22:49;;;;;;;3.1;2.4;;;;;;;4.05;99.94629;933.0089;;;;
2023/03/13 06:25:26;;;;;;;2.8;2.5;;;;;;;4.06;99.11621;932.9571;;;;
2023/03/13 06:27:51;;;;;;;5.8;3.9;;;;;;;4.06;98.86914;932.8942;;;;
2023/03/13 06:30:17;;;;;;;5.6;3.5;;;;;;;4.11;99.70313;932.8764;;;;
2023/03/13 06:32:43;;;;;;;3;2.4;;;;;;;4.15;98.25977;932.8082;;;;
2023/03/13 06:35:38;;;;;;;4.2;2.6;;;;;;;4.32;97.6582;932.7085;;;;
2023/03/13 06:38:03;;;;;;;4.5;3.2;;;;;;;4.5;97.19043;932.7877;;;;
2023/03/13 06:40:32;;;;;;;6.5;3.8;;;;;;;4.38;97.24316;932.7839;;;;
2023/03/13 06:42:57;;;;;;;4.2;3.4;;;;;;;4.41;97.98535;932.6928;;;;
2023/03/13 06:45:29;;;;;;;4.7;2.9;;;;;;;4.54;98.22754;932.6651;;;;
2023/03/13 06:47:59;;;;;;;6;3.8;;;;;;;4.66;97.92578;932.6766;;;;
2023/03/13 06:50:24;;;;;;;4.3;3.5;;;;;;;4.71;97.60059;932.6903;;;;
2023/03/13 06:52:56;;;;;;;5.2;3.7;;;;;;;4.68;98.00879;932.6936;;;;
2023/03/13 06:55:25;;;;;;;6.4;4;;;;;;;4.82;98.14551;932.7317;;;;
2023/03/13 06:57:50;;;;;;;6;3.6;;;;;;;4.85;96.87891;932.7031;;;;
2023/03/13 07:00:22;;;;;;;5.1;3.5;;;;;;;4.92;96.34277;932.64;;;;
2023/03/13 07:06:09;;;;;;;5.1;3.3;;;;;;;5.06;96.30566;932.6503;;;;
2023/03/13 07:08:34;;;;;;;4.5;2.5;;;;;;;5.03;96.01855;932.6584;;;;
2023/03/13 07:11:03;;;;;;;3.1;2.8;;;;;;;5.1;95.84277;932.6014;;;;
2023/03/13 07:13:33;;;;;;;4.2;3.4;;;;;;;5.07;95.64258;932.6473;;;;
2023/03/13 07:16:05;;;;;;;4.5;3;;;;;;;5.15;95.03125;932.6317;;;;
2023/03/13 07:18:29;;;;;;;4.3;3;;;;;;;5.14;94.73438;932.6914;;;;
2023/03/13 07:20:55;;;;;;;2.6;2.1;;;;;;;5.26;94.0498;932.6555;;;;
2023/03/13 07:23:19;;;;;;;3.6;2.6;;;;;;;5.35;93.62988;932.6287;;;;
2023/03/13 07:28:20;;;;;;;4.1;3.1;;;;;;;5.5;94.0791;932.6856;;;;
2023/03/13 07:30:45;;;;;;;3.3;2.2;;;;;;;5.47;91.11719;932.6085;;;;
2023/03/13 07:33:13;;;;;;;3;2.2;;;;;;;5.65;91.62988;932.5142;;;;
2023/03/13 07:35:38;;;;;;;3.2;2.1;;;;;;;5.89;89.83105;932.5686;;;;
2023/03/13 07:38:05;;;;;;;3.1;1.7;;;;;;;6.1;85.44336;932.527;;;;
2023/03/13 07:40:30;;;;;;;1.8;1.2;;;;;;;6.33;83.24902;932.5286;;;;
2023/03/13 07:42:56;;;;;;;2;1.2;;;;;;;6.46;81.1377;932.493;;;;
2023/03/13 07:45:21;;;;;;;3.5;1.2;;;;;;;6.52;80.48145;932.4954;;;;
2023/03/13 07:47:48;;;;;;;1.7;1.3;;;;;;;6.75;82.87891;932.5062;;;;
2023/03/13 07:50:13;;;;;;;3.1;2.3;;;;;;;6.86;83.37598;932.6244;;;;
2023/03/13 07:52:42;;;;;;;4.6;2.8;;;;;;;7.02;82.86328;932.5151;;;;
2023/03/13 07:55:07;;;;;;;4.2;2.4;;;;;;;7.21;83.53516;932.4269;;;;
2023/03/13 07:57:36;;;;;;;4.7;3.1;;;;;;;7.3;84.4248;932.3187;;;;
2023/03/13 08:00:09;;;;;;;7.4;3.5;;;;;;;7.21;86.66016;932.3244;;;;
2023/03/13 08:02:32;;;;;;;7.8;3.8;;;;;;;7.34;87.63965;932.3549;;;;
2023/03/13 08:04:59;;;;;;;6.6;3.5;;;;;;;7.39;87.99023;932.2889;;;;
2023/03/13 08:07:24;;;;;;;8.2;3.6;;;;;;;7.71;87.4082;932.1361;;;;
2023/03/13 08:09:52;;;;;;;6.7;3.8;;;;;;;7.82;86.82031;932.1685;;;;
2023/03/13 08:12:18;;;;;;;5.5;3.3;;;;;;;7.91;86.55273;932.1153;;;;
2023/03/13 08:14:45;;;;;;;5.5;2.9;;;;;;;8.02;82.88672;932.0737;;;;
2023/03/13 08:17:10;;;;;;;3;2.1;;;;;;;8.42;81.54297;932.0374;;;;
2023/03/13 08:19:38;;;;;;;3.5;2.9;;;;;;;8.67;81.40918;932.0466;;;;
2023/03/13 08:22:03;;;;;;;4.2;3;;;;;;;8.71;81.62109;932.0079;;;;
2023/03/13 08:24:29;;;;;;;4;3.1;;;;;;;8.76;80.67578;932.0042;;;;
2023/03/13 08:26:54;;;;;;;0.8;0.7;;;;;;;8.69;72.72656;931.9673;;;;
2023/03/13 08:29:25;;;;;;;0.8;0.6;;;;;;;8.75;71.26953;932.0422;;;;
2023/03/13 08:31:54;;;;;;;7.8;1.7;;;;;;;8.88;72.50879;932.106;;;;
2023/03/13 08:34:19;;;;;;;1.6;0.5;;;;;;;8.76;73.13574;931.8962;;;;
2023/03/13 08:36:48;;;;;;;0.8;0.5;;;;;;;8.93;71.81152;931.9562;;;;
2023/03/13 08:39:13;;;;;;;1.4;0.6;;;;;;;9.1;71.98926;932.0161;;;;
2023/03/13 08:41:41;;;;;;;0.5;0.5;;;;;;;9.25;70.93359;931.8812;;;;
2023/03/13 08:44:07;;;;;;;2.9;0.9;;;;;;;9.32;71.06934;931.8973;;;;
2023/03/13 08:46:34;;;;;;;5.2;1.2;;;;;;;9.4;71.81152;931.873;;;;
2023/03/13 08:48:59;;;;;;;10.5;2.3;;;;;;;9.47;70.22754;931.9903;;;;
2023/03/13 08:51:28;;;;;;;4.4;1.4;;;;;;;9.42;72.46191;931.9615;;;;
2023/03/13 08:53:54;;;;;;;4.8;3.3;;;;;;;9.23;77.31445;931.9947;;;;
2023/03/13 08:56:21;;;;;;;3.3;2.8;;;;;;;9.01;80.66504;931.9725;;;;
2023/03/13 08:58:46;;;;;;;4.6;3.3;;;;;;;8.98;81.55859;931.9946;;;;
2023/03/13 09:01:15;;;;;;;3.7;3.2;;;;;;;8.98;83.20801;931.9835;;;;
2023/03/13 09:03:42;;;;;;;4.7;3.6;;;;;;;8.93;83.6416;932.03;;;;
2023/03/13 09:06:07;;;;;;;5.5;3.7;;;;;;;8.82;84.66602;931.9476;;;;
2023/03/13 09:08:35;;;;;;;5.7;3.5;;;;;;;8.69;85.1875;931.9252;;;;
2023/03/13 09:11:00;;;;;;;4.3;2.9;;;;;;;8.75;85.99414;931.7208;;;;
2023/03/13 09:13:27;;;;;;;3;2.7;;;;;;;8.79;85.34375;931.7234;;;;
2023/03/13 09:15:52;;;;;;;2.3;1.8;;;;;;;8.78;82.24902;931.6678;;;;
2023/03/13 09:18:20;;;;;;;1.3;1.2;;;;;;;8.89;76.09277;931.5765;;;;
2023/03/13 09:20:45;;;;;;;1.4;1.3;;;;;;;9.14;75.94238;931.5064;;;;
2023/03/13 09:23:13;;;;;;;6.6;2.2;;;;;;;9.55;78.91113;931.4963;;;;
2023/03/13 09:25:38;;;;;;;2.6;1.5;;;;;;;9.97;76.54688;931.4568;;;;
2023/03/13 09:28:06;;;;;;;6.3;1.7;;;;;;;10.21;78.19727;931.4908;;;;
2023/03/13 09:30:31;;;;;;;2.5;1.8;;;;;;;10.26;78.69727;931.4681;;;;
2023/03/13 09:32:59;;;;;;;2.8;2;;;;;;;10.45;78.73242;931.4172;;;;
2023/03/13 09:35:28;;;;;;;1.2;1;;;;;;;10.66;71.41504;931.2977;;;;
2023/03/13 09:37:53;;;;;;;7;1.5;;;;;;;10.92;67;931.1555;;;;
2023/03/13 09:40:28;;;;;;;1.2;1;;;;;;;11.43;59.89453;930.97;;;;
2023/03/13 09:42:53;;;;;;;6.5;1.3;;;;;;;12.93;61.36426;931.0472;;;;
2023/03/13 09:45:18;;;;;;;3.5;0.9;;;;;;;14.79;52.18359;930.9828;;;;
2023/03/13 09:47:43;;;;;;;1;0.7;;;;;;;15.9;49.64746;931.0188;;;;
2023/03/13 09:50:09;;;;;;;1.1;0.6;;;;;;;16.49;48.07031;930.8419;;;;
2023/03/13 09:52:35;;;;;;;2.3;0.9;;;;;;;17.45;47.20117;930.8491;;;;
2023/03/13 09:54:59;;;;;;;2.1;0.6;;;;;;;17.7;45.11523;930.7827;;;;
2023/03/13 09:57:24;;;;;;;5;1.1;;;;;;;17.89;45.94824;930.7555;;;;
2023/03/13 09:59:50;;;;;;;4.4;0.8;;;;;;;18.43;43.71289;930.7587;;;;
2023/03/13 10:02:17;;;;;;;2.2;0.8;;;;;;;19.15;42.74902;930.6149;;;;
2023/03/13 10:04:42;;;;;;;0.7;0.5;;;;;;;19.3;42.97363;930.675;;;;
2023/03/13 10:07:09;;;;;;;0.7;0.6;;;;;;;18.72;41.10156;930.6116;;;;
2023/03/13 10:09:36;;;;;;;1.8;0.7;;;;;;;18.78;42.23633;930.548;;;;
2023/03/13 10:12:01;;;;;;;1.2;0.6;;;;;;;19.45;40.93652;930.5408;;;;
2023/03/13 10:14:25;;;;;;;8.8;1.5;;;;;;;19.91;41.02539;930.5887;;;;
2023/03/13 10:16:52;;;;;;;2.5;0.9;;;;;;;20.52;41.03613;930.5226;;;;
2023/03/13 10:19:17;;;;;;;0.9;0.7;;;;;;;19.98;38.81543;930.4341;;;;
2023/03/13 10:21:42;;;;;;;1.7;0.6;;;;;;;20.14;40.69629;930.4339;;;;
2023/03/13 10:24:07;;;;;;;1;0.6;;;;;;;20.53;40.24219;930.3194;;;;
2023/03/13 10:26:32;;;;;;;3.2;0.9;;;;;;;20.17;37.61719;930.4683;;;;
2023/03/13 10:28:59;;;;;;;1.2;0.5;;;;;;;19.52;41.5957;930.5092;;;;
2023/03/13 10:31:24;;;;;;;1.5;0.9;;;;;;;19.1;40.26367;930.4567;;;;
2023/03/13 10:33:54;;;;;;;1.6;1.3;;;;;;;19.15;39.96582;930.4032;;;;
2023/03/13 10:36:19;;;;;;;3.5;1.6;;;;;;;19.42;42.14551;930.3842;;;;
2023/03/13 10:38:47;;;;;;;2;0.8;;;;;;;20.05;40.33887;930.2822;;;;
2023/03/13 10:41:12;;;;;;;6.5;3.4;;;;;;;20.74;40.44824;930.2769;;;;
2023/03/13 10:43:37;;;;;;;2.1;1.1;;;;;;;21.29;37.91211;930.2697;;;;
2023/03/13 10:46:02;;;;;;;1.7;0.6;;;;;;;20.62;37.52832;930.2;;;;
2023/03/13 10:48:27;;;;;;;1.9;0.7;;;;;;;20.62;35.10938;930.2096;;;;
2023/03/13 10:50:52;;;;;;;2;0.5;;;;;;;21.04;36.10156;930.1317;;;;
2023/03/13 10:53:28;;;;;;;0.6;0.6;;;;;;;21.46;38.23145;930.1853;;;;
2023/03/13 10:55:52;;;;;;;0.7;0.5;;;;;;;21.62;34.55664;930.0894;;;;
2023/03/13 10:58:18;;;;;;;1.1;0.3;;;;;;;21.62;34.29883;930.0411;;;;
2023/03/13 11:00:43;;;;;;;0.6;0.4;;;;;;;21.53;35.54492;930.02;;;;
2023/03/13 11:03:11;;;;;;;2.1;0.8;;;;;;;20.73;35.72559;929.9819;;;;
2023/03/13 11:05:43;;;;;;;0.4;0.4;;;;;;;21.09;36.91309;929.8187;;;;
2023/03/13 11:08:08;;;;;;;0.5;0.5;;;;;;;21.05;36.82813;929.6939;;;;
2023/03/13 11:10:36;;;;;;;0.8;0.5;;;;;;;21.73;37.23535;929.6255;;;;
2023/03/13 11:13:00;;;;;;;0.9;0.5;;;;;;;22.72;33.72754;929.5715;;;;
2023/03/13 11:15:33;;;;;;;2.6;0.5;;;;;;;23.37;32.71875;929.5444;;;;
2023/03/13 11:17:58;;;;;;;0.4;0.4;;;;;;;24.24;31.94531;929.3491;;;;
2023/03/13 11:20:23;;;;;;;0.6;0.3;;;;;;;25.26;30.12988;929.2925;;;;
2023/03/13 11:22:55;;;;;;;0.2;0.2;;;;;;;26.16;28.15527;929.2955;;;;
2023/03/13 11:25:37;;;;;;;2.2;0.7;;;;;;;26.68;28.3418;929.215;;;;
2023/03/13 11:28:03;;;;;;;1.3;0.6;;;;;;;27.06;28.4375;929.1473;;;;
2023/03/13 11:30:29;;;;;;;1;0.5;;;;;;;27.09;28.88965;929.1682;;;;
2023/03/13 11:32:54;;;;;;;2.2;0.4;;;;;;;26.05;27.35547;929.1543;;;;
2023/03/13 11:35:19;;;;;;;0.7;0.4;;;;;;;26.22;28.47852;929.0575;;;;
2023/03/13 11:37:50;;;;;;;1.6;0.5;;;;;;;26.62;27.05859;929.0369;;;;
2023/03/13 11:40:20;;;;;;;0.6;0.6;;;;;;;26.47;27.87891;929.0408;;;;
2023/03/13 11:42:44;;;;;;;0.7;0.6;;;;;;;26.88;26.54199;928.9345;;;;
2023/03/13 11:45:15;;;;;;;1.3;0.4;;;;;;;26.63;26.98926;928.8604;;;;
2023/03/13 11:48:04;;;;;;;0.3;0.3;;;;;;;27.6;27.40332;928.788;;;;
2023/03/13 11:51:54;;;;;;;0.2;0.2;;;;;;;29.05;23.18164;928.6677;;;;
2023/03/13 11:54:20;;;;;;;0.2;0.2;;;;;;;29.72;23.65723;928.6099;;;;
2023/03/13 11:56:45;;;;;;;1.1;0.4;;;;;;;30.71;24.33008;928.5964;;;;
2023/03/13 11:59:11;;;;;;;0.3;0.3;;;;;;;30.61;23.52441;928.5227;;;;
2023/03/13 12:01:39;;;;;;;1.2;0.3;;;;;;;30.66;22.73828;928.4659;;;;
2023/03/13 12:04:08;;;;;;;0.4;0.4;;;;;;;29.55;25.29297;928.4061;;;;
2023/03/13 12:06:33;;;;;;;1.8;0.4;;;;;;;27.04;27.5;928.2519;;;;
2023/03/13 12:08:59;;;;;;;1.4;0.5;;;;;;;23.46;33.51172;928.1878;;;;
2023/03/13 12:11:24;;;;;;;2;0.3;;;;;;;23.66;32.7627;928.2087;;;;
2023/03/13 12:13:49;;;;;;;0.4;0.4;;;;;;;23.74;31.5918;928.1578;;;;
2023/03/13 12:16:14;;;;;;;0.6;0.4;;;;;;;23.68;31.23535;928.1003;;;;
2023/03/13 12:18:39;;;;;;;0.5;0.4;;;;;;;24.17;32.36426;928.1703;;;;
2023/03/13 12:21:04;;;;;;;0.3;0.3;;;;;;;24.78;29.96777;928.1404;;;;
2023/03/13 12:23:29;;;;;;;0.4;0.4;;;;;;;24.15;32.11523;928.1484;;;;
2023/03/13 12:25:54;;;;;;;0.4;0.4;;;;;;;24.15;32.72754;928.1825;;;;
2023/03/13 12:28:23;;;;;;;1.6;0.9;;;;;;;24.48;32.30469;928.1621;;;;
2023/03/13 12:30:47;;;;;;;1.1;0.4;;;;;;;23.19;34.24414;928.1445;;;;
2023/03/13 12:33:14;;;;;;;0.4;0.4;;;;;;;22.48;35.46875;928.0533;;;;
2023/03/13 12:35:39;;;;;;;0.7;0.4;;;;;;;21.82;37.05566;927.9302;;;;
2023/03/13 12:38:04;;;;;;;0.9;0.4;;;;;;;21.49;37.49707;927.994;;;;
2023/03/13 12:40:31;;;;;;;0.6;0.6;;;;;;;20.87;40.23828;928.0558;;;;
2023/03/13 12:42:56;;;;;;;0.8;0.5;;;;;;;20.78;39.84375;928.0759;;;;
2023/03/13 12:45:23;;;;;;;0.5;0.5;;;;;;;20.75;40.15723;928.0546;;;;
2023/03/13 12:47:46;;;;;;;1;0.5;;;;;;;20.91;39.4707;928.0011;;;;
2023/03/13 12:50:13;;;;;;;1;0.9;;;;;;;20.52;40.01953;927.9783;;;;
2023/03/13 12:52:38;;;;;;;1;0.6;;;;;;;21.23;38.54004;927.8845;;;;
2023/03/13 12:55:03;;;;;;;0.6;0.6;;;;;;;21.59;37.56348;927.8409;;;;
2023/03/13 12:57:28;;;;;;;0.6;0.6;;;;;;;22.09;36.41016;927.7698;;;;
2023/03/13 12:59:53;;;;;;;0.6;0.6;;;;;;;22.11;36.5293;927.7217;;;;
2023/03/13 13:02:18;;;;;;;0.6;0.5;;;;;;;22.02;37.38965;927.6794;;;;
2023/03/13 13:04:45;;;;;;;0.5;0.4;;;;;;;22.1;37.57227;927.6833;;;;
2023/03/13 13:07:10;;;;;;;0.9;0.8;;;;;;;23.41;35.98926;927.7449;;;;
2023/03/13 13:09:38;;;;;;;1.5;0.9;;;;;;;25.14;32.57715;927.7512;;;;
2023/03/13 13:12:00;;;;;;;0.5;0.4;;;;;;;25.7;31.28125;927.6507;;;;
2023/03/13 13:14:25;;;;;;;0.5;0.4;;;;;;;26.7;29.88281;927.5778;;;;
2023/03/13 13:16:51;;;;;;;0.3;0.3;;;;;;;26.01;31.1377;927.5256;;;;
2023/03/13 13:19:16;;;;;;;0.8;0.4;;;;;;;25.51;31.375;927.4967;;;;
2023/03/13 13:21:42;;;;;;;0.8;0.4;;;;;;;25.33;31.49219;927.4204;;;;
2023/03/13 13:24:07;;;;;;;0.9;0.5;;;;;;;26.46;30.48242;927.4494;;;;
2023/03/13 13:26:35;;;;;;;1.4;0.4;;;;;;;27.55;28.45605;927.4447;;;;
2023/03/13 13:28:57;;;;;;;0.3;0.3;;;;;;;26.84;29.43066;927.4292;;;;
2023/03/13 13:31:23;;;;;;;0.4;0.4;;;;;;;26.98;29.30957;927.4263;;;;
2023/03/13 13:33:51;;;;;;;0.4;0.3;;;;;;;27.28;28.75879;927.3513;;;;
2023/03/13 13:36:20;;;;;;;0.6;0.3;;;;;;;26.47;30.54297;927.3785;;;;
2023/03/13 13:38:41;;;;;;;0.4;0.4;;;;;;;27.45;29.41113;927.2758;;;;
2023/03/13 13:41:08;;;;;;;0.3;0.3;;;;;;;26.84;29.02734;927.2299;;;;
2023/03/13 13:43:33;;;;;;;0.9;0.4;;;;;;;27.1;29.70801;927.2406;;;;
2023/03/13 13:45:58;;;;;;;0.3;0.3;;;;;;;28.33;27.45996;927.1911;;;;
2023/03/13 13:48:24;;;;;;;0.3;0.3;;;;;;;28.01;28.11719;927.2131;;;;
2023/03/13 13:50:51;;;;;;;0.7;0.5;;;;;;;27.7;28.54883;927.1425;;;;
2023/03/13 13:53:16;;;;;;;0.3;0.3;;;;;;;26.57;29.98145;927.0876;;;;
2023/03/13 13:55:43;;;;;;;2.4;0.4;;;;;;;26.47;29.74902;927.0823;;;;
2023/03/13 13:58:08;;;;;;;0.3;0.3;;;;;;;26.25;29.9707;927.0872;;;;
2023/03/13 14:00:37;;;;;;;2.1;0.4;;;;;;;26.4;30.70313;926.9705;;;;
2023/03/13 14:03:02;;;;;;;0.5;0.5;;;;;;;25.49;31.43262;926.9819;;;;
2023/03/13 14:05:33;;;;;;;0.6;0.4;;;;;;;25.14;32.59961;926.9691;;;;
2023/03/13 14:08:02;;;;;;;0.4;0.4;;;;;;;25.88;31.07031;926.8766;;;;
2023/03/13 14:10:29;;;;;;;0.5;0.5;;;;;;;26.46;30.55371;926.8136;;;;
2023/03/13 14:12:57;;;;;;;0.6;0.3;;;;;;;26.37;30.83203;926.7427;;;;
2023/03/13 14:15:29;;;;;;;0.6;0.6;;;;;;;25.67;31.55176;926.8158;;;;
2023/03/13 14:17:54;;;;;;;0.7;0.3;;;;;;;26;30.80664;926.8735;;;;
2023/03/13 14:20:19;;;;;;;0.9;0.4;;;;;;;26.05;31.79102;926.8387;;;;
2023/03/13 14:22:47;;;;;;;0.5;0.3;;;;;;;27.49;29.2002;926.8208;;;;
2023/03/13 14:25:11;;;;;;;0.2;0.2;;;;;;;28.01;27.83203;926.8077;;;;
2023/03/13 14:27:39;;;;;;;0.5;0.3;;;;;;;27.71;28.72852;926.6836;;;;
2023/03/13 14:30:04;;;;;;;0.4;0.4;;;;;;;26.49;30.33105;926.6312;;;;
2023/03/13 14:32:32;;;;;;;0.5;0.3;;;;;;;25.23;31.46191;926.6174;;;;
2023/03/13 14:34:57;;;;;;;0.4;0.3;;;;;;;24.04;33.07324;926.5391;;;;
2023/03/13 14:37:24;;;;;;;0.4;0.4;;;;;;;23.15;34.32422;926.4702;;;;
2023/03/13 14:39:52;;;;;;;0.4;0.4;;;;;;;22.19;36.17188;926.3742;;;;
2023/03/13 14:42:18;;;;;;;0.5;0.3;;;;;;;21.74;37.07324;926.2977;;;;
2023/03/13 14:44:48;;;;;;;0.3;0.3;;;;;;;21.6;37.92676;926.218;;;;
2023/03/13 14:47:12;;;;;;;0.5;0.5;;;;;;;21.73;38.27832;926.2097;;;;
2023/03/13 14:49:41;;;;;;;1;0.5;;;;;;;22.51;36.63281;926.1556;;;;
2023/03/13 14:52:07;;;;;;;0.4;0.4;;;;;;;23.05;35.99609;926.1342;;;;
2023/03/13 14:54:31;;;;;;;0.5;0.5;;;;;;;23.71;34.89551;926.0659;;;;
2023/03/13 14:56:57;;;;;;;0.5;0.4;;;;;;;23.8;34.98535;926.0608;;;;
2023/03/13 14:59:23;;;;;;;0.3;0.3;;;;;;;24.08;34.38379;925.9673;;;;
2023/03/13 15:01:50;;;;;;;0.9;0.4;;;;;;;23.8;34.95117;925.8831;;;;
2023/03/13 15:04:15;;;;;;;0.6;0.6;;;;;;;23.99;34.42383;925.8638;;;;
2023/03/13 15:06:40;;;;;;;0.5;0.4;;;;;;;23.62;34.85449;925.8297;;;;
2023/03/13 15:09:08;;;;;;;0.3;0.3;;;;;;;23.08;36.05664;925.8541;;;;
2023/03/13 15:11:33;;;;;;;1.1;0.5;;;;;;;22.6;36.70996;925.8798;;;;
2023/03/13 15:13:58;;;;;;;0.4;0.4;;;;;;;22.27;37.45703;925.864;;;;
2023/03/13 15:16:23;;;;;;;0.3;0.3;;;;;;;21.95;37.93359;925.7971;;;;
2023/03/13 15:18:53;;;;;;;0.5;0.3;;;;;;;21.54;38.64844;925.731;;;;
2023/03/13 15:21:21;;;;;;;0.5;0.4;;;;;;;21.35;39.36914;925.712;;;;
2023/03/13 15:23:46;;;;;;;0.3;0.3;;;;;;;21.1;39.95508;925.7658;;;;
2023/03/13 15:26:11;;;;;;;0.3;0.3;;;;;;;20.92;40.51172;925.7366;;;;
2023/03/13 15:28:38;;;;;;;0.5;0.4;;;;;;;20.82;41.2627;925.6314;;;;
2023/03/13 15:31:03;;;;;;;0.7;0.4;;;;;;;20.8;41.0498;925.4897;;;;
2023/03/13 15:33:30;;;;;;;0.4;0.3;;;;;;;20.66;41.36523;925.5217;;;;
2023/03/13 15:35:56;;;;;;;0.5;0.3;;;;;;;20.49;41.23242;925.4457;;;;
2023/03/13 15:38:26;;;;;;;0.6;0.4;;;;;;;20.25;41.88672;925.4512;;;;
2023/03/13 15:40:51;;;;;;;2.5;0.4;;;;;;;20.05;42.06641;925.4171;;;;
2023/03/13 15:43:17;;;;;;;1.2;0.7;;;;;;;19.82;44.01465;925.4113;;;;
2023/03/13 15:45:42;;;;;;;1.4;0.6;;;;;;;19.64;44.9873;925.3775;;;;
2023/03/13 15:48:08;;;;;;;1.5;0.9;;;;;;;19.6;45.35645;925.3579;;;;
2023/03/13 15:50:33;;;;;;;3.1;2;;;;;;;19.48;45.62402;925.302;;;;
2023/03/13 15:53:03;;;;;;;3.2;1.4;;;;;;;19.28;46.03516;925.2062;;;;
2023/03/13 15:55:28;;;;;;;1.5;1.4;;;;;;;19.07;46.78125;925.1188;;;;
2023/03/13 15:57:53;;;;;;;2.1;1;;;;;;;19.16;46.87305;925.079;;;;
2023/03/13 16:00:20;;;;;;;0.9;0.9;;;;;;;18.96;46.73535;925.0778;;;;
2023/03/13 16:02:45;;;;;;;0.7;0.7;;;;;;;18.99;47.68164;925.0474;;;;
2023/03/13 16:05:15;;;;;;;4.9;1.5;;;;;;;18.99;48.54199;924.9702;;;;
2023/03/13 16:07:42;;;;;;;2;0.9;;;;;;;18.95;48.03711;924.934;;;;
2023/03/13 16:10:07;;;;;;;1;0.9;;;;;;;18.92;48.79102;924.8853;;;;
2023/03/13 16:12:36;;;;;;;2.1;1.1;;;;;;;18.86;48.87695;924.9025;;;;
2023/03/13 16:15:01;;;;;;;1.9;1.1;;;;;;;18.74;49.68945;924.8783;;;;
2023/03/13 16:17:30;;;;;;;0.9;0.5;;;;;;;18.66;48.84277;924.798;;;;
2023/03/13 16:19:56;;;;;;;4.7;0.8;;;;;;;18.56;49.34375;924.7414;;;;
2023/03/13 16:22:24;;;;;;;4;0.8;;;;;;;18.4;50.37207;924.701;;;;
2023/03/13 16:24:49;;;;;;;0.7;0.5;;;;;;;18.17;51.69238;924.6397;;;;
2023/03/13 16:27:16;;;;;;;6;0.9;;;;;;;17.91;52.38281;924.4825;;;;
2023/03/13 16:29:41;;;;;;;6.7;2.1;;;;;;;17.71;53.53223;924.4998;;;;
2023/03/13 16:32:11;;;;;;;3.6;1.1;;;;;;;17.57;53.94434;924.5377;;;;
2023/03/13 16:34:36;;;;;;;2.4;1;;;;;;;17.49;53.99121;924.4911;;;;
2023/03/13 16:37:03;;;;;;;4.1;1;;;;;;;17.33;54.61035;924.4324;;;;
2023/03/13 16:39:28;;;;;;;3;0.8;;;;;;;17.13;56.08105;924.4408;;;;
2023/03/13 16:41:54;;;;;;;6.2;0.9;;;;;;;17;56.21484;924.3472;;;;
2023/03/13 16:44:19;;;;;;;4.3;1.7;;;;;;;16.8;56.33984;924.3382;;;;
2023/03/13 16:46:48;;;;;;;3.2;1.8;;;;;;;16.53;57.57813;924.2776;;;;
2023/03/13 16:49:18;;;;;;;6;3.1;;;;;;;16.21;59.2832;924.2755;;;;
2023/03/13 16:51:43;;;;;;;8;2.7;;;;;;;15.98;59.81836;924.2076;;;;
2023/03/13 16:54:12;;;;;;;5.1;2.7;;;;;;;15.92;59.53223;924.1984;;;;
2023/03/13 16:56:36;;;;;;;6.9;2.9;;;;;;;15.8;60.03613;924.1732;;;;
2023/03/13 16:59:03;;;;;;;7.2;3.1;;;;;;;15.54;61.61719;924.1258;;;;
2023/03/13 17:01:28;;;;;;;2.4;1.2;;;;;;;15.18;62.60449;924.0758;;;;
2023/03/13 17:03:57;;;;;;;5.7;1.8;;;;;;;14.8;64.26953;924.085;;;;
2023/03/13 17:06:26;;;;;;;5.7;2.2;;;;;;;14.65;64.48926;923.9972;;;;
2023/03/13 17:08:51;;;;;;;4.9;2.4;;;;;;;14.53;64.42578;924.0003;;;;
2023/03/13 17:11:18;;;;;;;7.8;2.2;;;;;;;14.53;65.02539;923.8939;;;;
2023/03/13 17:13:43;;;;;;;7.6;3.1;;;;;;;14.6;64.6084;923.9439;;;;